sensor_id;sensor_type;location;lat;lon;timestamp;P1;durP1;ratioP1;P2;durP2;ratioP2
35558;SDS011;21661;50.794;-1.066;2023-07-30T00:01:57;11.43;;;2.10;;
35558;SDS011;21661;50.794;-1.066;2023-07-30T00:04:22;10.35;;;2.25;;
35558;SDS011;21661;50.794;-1.066;2023-07-30T00:06:48;13.88;;;2.55;;
35558;SDS011;21661;50.794;-1.066;2023-07-30T00:09:14;13.80;;;2.53;;
35558;SDS011;21661;50.794;-1.066;2023-07-30T00:11:39;12.77;;;2.78;;
35558;SDS011;21661;50.794;-1.066;2023-07-30T00:14:05;14.88;;;3.22;;
35558;SDS011;21661;50.794;-1.066;2023-07-30T00:16:31;12.15;;;2.70;;
35558;SDS011;21661;50.794;-1.066;2023-07-30T00:18:56;11.48;;;2.83;;
35558;SDS011;21661;50.794;-1.066;2023-07-30T00:21:22;16.90;;;2.83;;
35558;SDS011;21661;50.794;-1.066;2023-07-30T00:23:48;14.02;;;2.80;;
35558;SDS011;21661;50.794;-1.066;2023-07-30T00:26:13;10.75;;;2.40;;
35558;SDS011;21661;50.794;-1.066;2023-07-30T00:28:39;12.30;;;2.75;;
35558;SDS011;21661;50.794;-1.066;2023-07-30T00:31:05;14.07;;;2.58;;
35558;SDS011;21661;50.794;-1.066;2023-07-30T00:33:30;13.32;;;2.35;;
35558;SDS011;21661;50.794;-1.066;2023-07-30T00:35:56;14.07;;;2.33;;
35558;SDS011;21661;50.794;-1.066;2023-07-30T00:38:21;11.63;;;2.15;;
35558;SDS011;21661;50.794;-1.066;2023-07-30T00:40:47;13.30;;;2.10;;
35558;SDS011;21661;50.794;-1.066;2023-07-30T00:43:13;12.18;;;2.28;;
35558;SDS011;21661;50.794;-1.066;2023-07-30T00:45:39;11.35;;;2.20;;
35558;SDS011;21661;50.794;-1.066;2023-07-30T00:48:06;9.43;;;2.50;;
35558;SDS011;21661;50.794;-1.066;2023-07-30T00:50:32;10.55;;;1.65;;
35558;SDS011;21661;50.794;-1.066;2023-07-30T00:52:58;8.98;;;2.03;;
35558;SDS011;21661;50.794;-1.066;2023-07-30T00:55:24;11.98;;;2.78;;
35558;SDS011;21661;50.794;-1.066;2023-07-30T00:57:50;11.18;;;2.20;;
35558;SDS011;21661;50.794;-1.066;2023-07-30T01:00:17;9.40;;;1.70;;
35558;SDS011;21661;50.794;-1.066;2023-07-30T01:02:43;11.23;;;1.90;;
35558;SDS011;21661;50.794;-1.066;2023-07-30T01:05:09;10.35;;;1.80;;
35558;SDS011;21661;50.794;-1.066;2023-07-30T01:07:34;13.18;;;2.00;;
35558;SDS011;21661;50.794;-1.066;2023-07-30T01:10:00;12.18;;;2.10;;
35558;SDS011;21661;50.794;-1.066;2023-07-30T01:12:27;10.80;;;1.75;;
35558;SDS011;21661;50.794;-1.066;2023-07-30T01:14:54;7.72;;;1.73;;
35558;SDS011;21661;50.794;-1.066;2023-07-30T01:17:20;8.05;;;1.58;;
35558;SDS011;21661;50.794;-1.066;2023-07-30T01:19:47;9.50;;;1.55;;
35558;SDS011;21661;50.794;-1.066;2023-07-30T01:22:14;7.50;;;1.55;;
35558;SDS011;21661;50.794;-1.066;2023-07-30T01:24:40;6.15;;;1.20;;
35558;SDS011;21661;50.794;-1.066;2023-07-30T01:27:07;5.38;;;1.20;;
35558;SDS011;21661;50.794;-1.066;2023-07-30T01:29:42;8.07;;;1.20;;
35558;SDS011;21661;50.794;-1.066;2023-07-30T01:32:13;5.35;;;0.82;;
35558;SDS011;21661;50.794;-1.066;2023-07-30T01:34:40;4.15;;;0.95;;
35558;SDS011;21661;50.794;-1.066;2023-07-30T01:37:09;6.50;;;1.20;;
35558;SDS011;21661;50.794;-1.066;2023-07-30T01:39:40;7.38;;;1.25;;
35558;SDS011;21661;50.794;-1.066;2023-07-30T01:42:07;2.50;;;0.97;;
35558;SDS011;21661;50.794;-1.066;2023-07-30T01:44:33;6.32;;;1.50;;
35558;SDS011;21661;50.794;-1.066;2023-07-30T01:46:58;6.22;;;1.15;;
35558;SDS011;21661;50.794;-1.066;2023-07-30T01:49:24;6.25;;;1.23;;
35558;SDS011;21661;50.794;-1.066;2023-07-30T01:51:50;9.25;;;1.38;;
35558;SDS011;21661;50.794;-1.066;2023-07-30T01:54:15;13.77;;;1.50;;
35558;SDS011;21661;50.794;-1.066;2023-07-30T01:56:41;9.43;;;1.75;;
35558;SDS011;21661;50.794;-1.066;2023-07-30T01:59:06;5.28;;;1.17;;
35558;SDS011;21661;50.794;-1.066;2023-07-30T02:01:32;7.47;;;1.20;;
35558;SDS011;21661;50.794;-1.066;2023-07-30T02:03:58;9.77;;;1.10;;
35558;SDS011;21661;50.794;-1.066;2023-07-30T02:06:23;9.18;;;1.48;;
35558;SDS011;21661;50.794;-1.066;2023-07-30T02:08:49;7.03;;;1.23;;
35558;SDS011;21661;50.794;-1.066;2023-07-30T02:11:14;6.65;;;1.90;;
35558;SDS011;21661;50.794;-1.066;2023-07-30T02:13:40;8.30;;;1.40;;
35558;SDS011;21661;50.794;-1.066;2023-07-30T02:16:06;8.00;;;1.30;;
35558;SDS011;21661;50.794;-1.066;2023-07-30T02:18:31;7.60;;;1.50;;
35558;SDS011;21661;50.794;-1.066;2023-07-30T02:20:57;6.60;;;1.58;;
35558;SDS011;21661;50.794;-1.066;2023-07-30T02:23:23;8.15;;;1.80;;
35558;SDS011;21661;50.794;-1.066;2023-07-30T02:25:48;5.97;;;1.58;;
35558;SDS011;21661;50.794;-1.066;2023-07-30T02:28:14;9.38;;;1.60;;
35558;SDS011;21661;50.794;-1.066;2023-07-30T02:30:39;6.57;;;1.00;;
35558;SDS011;21661;50.794;-1.066;2023-07-30T02:33:05;10.50;;;1.65;;
35558;SDS011;21661;50.794;-1.066;2023-07-30T02:35:30;5.13;;;1.15;;
35558;SDS011;21661;50.794;-1.066;2023-07-30T02:37:56;5.60;;;1.25;;
35558;SDS011;21661;50.794;-1.066;2023-07-30T02:40:22;5.75;;;2.00;;
35558;SDS011;21661;50.794;-1.066;2023-07-30T02:42:47;7.93;;;1.67;;
35558;SDS011;21661;50.794;-1.066;2023-07-30T02:45:13;5.90;;;1.77;;
35558;SDS011;21661;50.794;-1.066;2023-07-30T02:47:38;8.75;;;1.48;;
35558;SDS011;21661;50.794;-1.066;2023-07-30T02:50:04;8.45;;;1.40;;
35558;SDS011;21661;50.794;-1.066;2023-07-30T02:52:33;7.30;;;1.40;;
35558;SDS011;21661;50.794;-1.066;2023-07-30T02:54:59;8.95;;;1.45;;
35558;SDS011;21661;50.794;-1.066;2023-07-30T02:57:24;7.20;;;1.70;;
35558;SDS011;21661;50.794;-1.066;2023-07-30T02:59:50;10.15;;;1.45;;
35558;SDS011;21661;50.794;-1.066;2023-07-30T03:02:15;5.70;;;1.20;;
35558;SDS011;21661;50.794;-1.066;2023-07-30T03:04:41;9.05;;;1.45;;
35558;SDS011;21661;50.794;-1.066;2023-07-30T03:07:08;10.93;;;1.35;;
35558;SDS011;21661;50.794;-1.066;2023-07-30T03:09:34;9.48;;;2.08;;
35558;SDS011;21661;50.794;-1.066;2023-07-30T03:11:59;6.57;;;1.33;;
35558;SDS011;21661;50.794;-1.066;2023-07-30T03:14:25;11.70;;;1.90;;
35558;SDS011;21661;50.794;-1.066;2023-07-30T03:16:51;6.20;;;1.30;;
35558;SDS011;21661;50.794;-1.066;2023-07-30T03:19:16;5.78;;;1.50;;
35558;SDS011;21661;50.794;-1.066;2023-07-30T03:21:42;5.07;;;1.48;;
35558;SDS011;21661;50.794;-1.066;2023-07-30T03:24:08;9.77;;;1.23;;
35558;SDS011;21661;50.794;-1.066;2023-07-30T03:26:33;5.93;;;1.33;;
35558;SDS011;21661;50.794;-1.066;2023-07-30T03:28:59;8.63;;;1.52;;
35558;SDS011;21661;50.794;-1.066;2023-07-30T03:31:25;6.93;;;1.27;;
35558;SDS011;21661;50.794;-1.066;2023-07-30T03:33:50;10.55;;;1.50;;
35558;SDS011;21661;50.794;-1.066;2023-07-30T03:36:16;7.85;;;1.70;;
35558;SDS011;21661;50.794;-1.066;2023-07-30T03:38:42;6.43;;;1.70;;
35558;SDS011;21661;50.794;-1.066;2023-07-30T03:41:08;9.63;;;1.52;;
35558;SDS011;21661;50.794;-1.066;2023-07-30T03:43:35;9.50;;;2.05;;
35558;SDS011;21661;50.794;-1.066;2023-07-30T03:46:01;12.88;;;2.17;;
35558;SDS011;21661;50.794;-1.066;2023-07-30T03:48:26;10.27;;;1.60;;
35558;SDS011;21661;50.794;-1.066;2023-07-30T03:50:52;9.55;;;1.85;;
35558;SDS011;21661;50.794;-1.066;2023-07-30T03:53:18;6.97;;;1.10;;
35558;SDS011;21661;50.794;-1.066;2023-07-30T03:55:44;5.22;;;1.50;;
35558;SDS011;21661;50.794;-1.066;2023-07-30T03:58:10;11.27;;;1.48;;
35558;SDS011;21661;50.794;-1.066;2023-07-30T04:00:36;9.38;;;1.67;;
35558;SDS011;21661;50.794;-1.066;2023-07-30T04:03:01;7.18;;;1.25;;
35558;SDS011;21661;50.794;-1.066;2023-07-30T04:05:27;6.97;;;1.45;;
35558;SDS011;21661;50.794;-1.066;2023-07-30T04:07:53;10.45;;;2.35;;
35558;SDS011;21661;50.794;-1.066;2023-07-30T04:10:18;10.23;;;1.80;;
35558;SDS011;21661;50.794;-1.066;2023-07-30T04:12:44;9.65;;;1.90;;
35558;SDS011;21661;50.794;-1.066;2023-07-30T04:15:10;8.63;;;2.22;;
35558;SDS011;21661;50.794;-1.066;2023-07-30T04:17:38;12.18;;;1.75;;
35558;SDS011;21661;50.794;-1.066;2023-07-30T04:20:04;8.63;;;1.58;;
35558;SDS011;21661;50.794;-1.066;2023-07-30T04:22:30;13.00;;;1.70;;
35558;SDS011;21661;50.794;-1.066;2023-07-30T04:24:56;14.73;;;1.35;;
35558;SDS011;21661;50.794;-1.066;2023-07-30T04:27:22;9.45;;;2.13;;
35558;SDS011;21661;50.794;-1.066;2023-07-30T04:29:47;9.20;;;1.48;;
35558;SDS011;21661;50.794;-1.066;2023-07-30T04:32:13;11.80;;;1.70;;
35558;SDS011;21661;50.794;-1.066;2023-07-30T04:34:39;7.55;;;1.30;;
35558;SDS011;21661;50.794;-1.066;2023-07-30T04:37:05;6.55;;;1.63;;
35558;SDS011;21661;50.794;-1.066;2023-07-30T04:39:34;10.32;;;1.70;;
35558;SDS011;21661;50.794;-1.066;2023-07-30T04:42:00;10.35;;;1.50;;
35558;SDS011;21661;50.794;-1.066;2023-07-30T04:44:26;9.02;;;1.40;;
35558;SDS011;21661;50.794;-1.066;2023-07-30T04:46:52;9.90;;;1.88;;
35558;SDS011;21661;50.794;-1.066;2023-07-30T04:49:17;9.95;;;1.83;;
35558;SDS011;21661;50.794;-1.066;2023-07-30T04:51:43;9.27;;;1.50;;
35558;SDS011;21661;50.794;-1.066;2023-07-30T04:54:08;7.70;;;1.38;;
35558;SDS011;21661;50.794;-1.066;2023-07-30T04:56:34;12.65;;;1.60;;
35558;SDS011;21661;50.794;-1.066;2023-07-30T04:59:00;8.80;;;1.60;;
35558;SDS011;21661;50.794;-1.066;2023-07-30T05:01:26;9.63;;;1.60;;
35558;SDS011;21661;50.794;-1.066;2023-07-30T05:03:52;9.07;;;2.17;;
35558;SDS011;21661;50.794;-1.066;2023-07-30T05:06:18;8.25;;;2.05;;
35558;SDS011;21661;50.794;-1.066;2023-07-30T05:08:44;8.75;;;1.80;;
35558;SDS011;21661;50.794;-1.066;2023-07-30T05:11:09;7.20;;;1.45;;
35558;SDS011;21661;50.794;-1.066;2023-07-30T05:13:35;9.75;;;1.95;;
35558;SDS011;21661;50.794;-1.066;2023-07-30T05:16:00;10.23;;;1.77;;
35558;SDS011;21661;50.794;-1.066;2023-07-30T05:18:26;8.85;;;1.80;;
35558;SDS011;21661;50.794;-1.066;2023-07-30T05:20:52;8.23;;;1.60;;
35558;SDS011;21661;50.794;-1.066;2023-07-30T05:23:18;10.10;;;1.70;;
35558;SDS011;21661;50.794;-1.066;2023-07-30T05:25:44;9.95;;;1.63;;
35558;SDS011;21661;50.794;-1.066;2023-07-30T05:28:10;10.30;;;2.58;;
35558;SDS011;21661;50.794;-1.066;2023-07-30T05:30:35;6.55;;;1.67;;
35558;SDS011;21661;50.794;-1.066;2023-07-30T05:33:01;9.38;;;1.27;;
35558;SDS011;21661;50.794;-1.066;2023-07-30T05:35:29;9.07;;;1.90;;
35558;SDS011;21661;50.794;-1.066;2023-07-30T05:37:55;6.75;;;1.75;;
35558;SDS011;21661;50.794;-1.066;2023-07-30T05:40:21;9.02;;;2.10;;
35558;SDS011;21661;50.794;-1.066;2023-07-30T05:42:47;8.00;;;1.70;;
35558;SDS011;21661;50.794;-1.066;2023-07-30T05:45:12;8.82;;;1.75;;
35558;SDS011;21661;50.794;-1.066;2023-07-30T05:47:38;12.35;;;2.65;;
35558;SDS011;21661;50.794;-1.066;2023-07-30T05:50:04;13.02;;;1.60;;
35558;SDS011;21661;50.794;-1.066;2023-07-30T05:52:31;9.85;;;2.00;;
35558;SDS011;21661;50.794;-1.066;2023-07-30T05:54:57;9.02;;;1.88;;
35558;SDS011;21661;50.794;-1.066;2023-07-30T05:57:22;12.90;;;1.83;;
35558;SDS011;21661;50.794;-1.066;2023-07-30T05:59:48;10.50;;;2.15;;
35558;SDS011;21661;50.794;-1.066;2023-07-30T06:02:14;9.18;;;1.67;;
35558;SDS011;21661;50.794;-1.066;2023-07-30T06:04:40;9.07;;;1.95;;
35558;SDS011;21661;50.794;-1.066;2023-07-30T06:07:05;9.38;;;2.20;;
35558;SDS011;21661;50.794;-1.066;2023-07-30T06:09:31;8.60;;;1.70;;
35558;SDS011;21661;50.794;-1.066;2023-07-30T06:11:57;8.85;;;1.70;;
35558;SDS011;21661;50.794;-1.066;2023-07-30T06:14:23;9.55;;;1.70;;
35558;SDS011;21661;50.794;-1.066;2023-07-30T06:16:49;8.95;;;1.73;;
35558;SDS011;21661;50.794;-1.066;2023-07-30T06:19:14;8.38;;;1.83;;
35558;SDS011;21661;50.794;-1.066;2023-07-30T06:21:40;8.95;;;1.50;;
35558;SDS011;21661;50.794;-1.066;2023-07-30T06:24:05;8.20;;;1.52;;
35558;SDS011;21661;50.794;-1.066;2023-07-30T06:26:31;9.73;;;2.10;;
35558;SDS011;21661;50.794;-1.066;2023-07-30T06:28:57;7.18;;;1.50;;
35558;SDS011;21661;50.794;-1.066;2023-07-30T06:31:23;13.18;;;2.40;;
35558;SDS011;21661;50.794;-1.066;2023-07-30T06:33:49;8.25;;;2.30;;
35558;SDS011;21661;50.794;-1.066;2023-07-30T06:36:14;7.03;;;1.98;;
35558;SDS011;21661;50.794;-1.066;2023-07-30T06:38:40;8.25;;;1.52;;
35558;SDS011;21661;50.794;-1.066;2023-07-30T06:41:05;9.48;;;2.42;;
35558;SDS011;21661;50.794;-1.066;2023-07-30T06:43:31;9.48;;;1.80;;
35558;SDS011;21661;50.794;-1.066;2023-07-30T06:45:57;9.02;;;1.67;;
35558;SDS011;21661;50.794;-1.066;2023-07-30T06:48:22;9.27;;;1.67;;
35558;SDS011;21661;50.794;-1.066;2023-07-30T06:50:48;9.93;;;1.58;;
35558;SDS011;21661;50.794;-1.066;2023-07-30T06:53:13;10.82;;;2.30;;
35558;SDS011;21661;50.794;-1.066;2023-07-30T06:55:39;9.77;;;2.10;;
35558;SDS011;21661;50.794;-1.066;2023-07-30T06:58:04;10.40;;;2.20;;
35558;SDS011;21661;50.794;-1.066;2023-07-30T07:00:30;10.38;;;2.33;;
35558;SDS011;21661;50.794;-1.066;2023-07-30T07:02:56;8.15;;;1.92;;
35558;SDS011;21661;50.794;-1.066;2023-07-30T07:05:21;5.78;;;1.77;;
35558;SDS011;21661;50.794;-1.066;2023-07-30T07:07:48;9.57;;;1.80;;
35558;SDS011;21661;50.794;-1.066;2023-07-30T07:10:13;10.00;;;1.77;;
35558;SDS011;21661;50.794;-1.066;2023-07-30T07:12:39;12.32;;;2.25;;
35558;SDS011;21661;50.794;-1.066;2023-07-30T07:15:05;8.10;;;1.73;;
35558;SDS011;21661;50.794;-1.066;2023-07-30T07:17:31;9.30;;;2.00;;
35558;SDS011;21661;50.794;-1.066;2023-07-30T07:19:57;15.63;;;1.92;;
35558;SDS011;21661;50.794;-1.066;2023-07-30T07:22:23;10.50;;;2.20;;
35558;SDS011;21661;50.794;-1.066;2023-07-30T07:24:49;10.93;;;2.17;;
35558;SDS011;21661;50.794;-1.066;2023-07-30T07:27:17;13.52;;;2.28;;
35558;SDS011;21661;50.794;-1.066;2023-07-30T07:29:43;14.57;;;2.72;;
35558;SDS011;21661;50.794;-1.066;2023-07-30T07:32:09;11.93;;;2.45;;
35558;SDS011;21661;50.794;-1.066;2023-07-30T07:34:34;7.18;;;2.08;;
35558;SDS011;21661;50.794;-1.066;2023-07-30T07:37:01;9.77;;;2.35;;
35558;SDS011;21661;50.794;-1.066;2023-07-30T07:39:27;13.52;;;3.13;;
35558;SDS011;21661;50.794;-1.066;2023-07-30T07:41:52;8.57;;;2.35;;
35558;SDS011;21661;50.794;-1.066;2023-07-30T07:44:18;13.32;;;2.65;;
35558;SDS011;21661;50.794;-1.066;2023-07-30T07:46:44;17.10;;;2.50;;
35558;SDS011;21661;50.794;-1.066;2023-07-30T07:49:09;17.88;;;2.80;;
35558;SDS011;21661;50.794;-1.066;2023-07-30T07:51:35;11.60;;;3.08;;
35558;SDS011;21661;50.794;-1.066;2023-07-30T07:54:00;12.75;;;3.30;;
35558;SDS011;21661;50.794;-1.066;2023-07-30T07:56:26;15.75;;;2.88;;
35558;SDS011;21661;50.794;-1.066;2023-07-30T07:58:52;15.45;;;3.30;;
35558;SDS011;21661;50.794;-1.066;2023-07-30T08:01:17;12.68;;;2.78;;
35558;SDS011;21661;50.794;-1.066;2023-07-30T08:03:43;13.63;;;2.75;;
35558;SDS011;21661;50.794;-1.066;2023-07-30T08:06:09;15.52;;;3.70;;
35558;SDS011;21661;50.794;-1.066;2023-07-30T08:08:34;13.00;;;3.38;;
35558;SDS011;21661;50.794;-1.066;2023-07-30T08:11:04;22.60;;;3.67;;
35558;SDS011;21661;50.794;-1.066;2023-07-30T08:13:31;14.68;;;3.17;;
35558;SDS011;21661;50.794;-1.066;2023-07-30T08:15:57;17.33;;;3.03;;
35558;SDS011;21661;50.794;-1.066;2023-07-30T08:18:23;15.15;;;3.80;;
35558;SDS011;21661;50.794;-1.066;2023-07-30T08:20:49;15.35;;;2.95;;
35558;SDS011;21661;50.794;-1.066;2023-07-30T08:23:15;17.23;;;3.67;;
35558;SDS011;21661;50.794;-1.066;2023-07-30T08:25:40;14.90;;;3.80;;
35558;SDS011;21661;50.794;-1.066;2023-07-30T08:28:06;14.68;;;3.40;;
35558;SDS011;21661;50.794;-1.066;2023-07-30T08:30:31;18.05;;;3.45;;
35558;SDS011;21661;50.794;-1.066;2023-07-30T08:32:57;12.13;;;3.63;;
35558;SDS011;21661;50.794;-1.066;2023-07-30T08:35:23;13.40;;;3.63;;
35558;SDS011;21661;50.794;-1.066;2023-07-30T08:37:48;15.55;;;3.40;;
35558;SDS011;21661;50.794;-1.066;2023-07-30T08:40:14;14.98;;;3.65;;
35558;SDS011;21661;50.794;-1.066;2023-07-30T08:42:40;9.23;;;3.00;;
35558;SDS011;21661;50.794;-1.066;2023-07-30T08:45:06;16.85;;;3.58;;
35558;SDS011;21661;50.794;-1.066;2023-07-30T08:47:35;14.23;;;3.75;;
35558;SDS011;21661;50.794;-1.066;2023-07-30T08:50:01;14.50;;;3.60;;
35558;SDS011;21661;50.794;-1.066;2023-07-30T08:52:26;12.88;;;3.00;;
35558;SDS011;21661;50.794;-1.066;2023-07-30T08:54:55;11.40;;;3.22;;
35558;SDS011;21661;50.794;-1.066;2023-07-30T08:57:23;11.00;;;2.80;;
35558;SDS011;21661;50.794;-1.066;2023-07-30T08:59:52;8.02;;;2.42;;
35558;SDS011;21661;50.794;-1.066;2023-07-30T09:02:37;6.53;;;2.17;;
35558;SDS011;21661;50.794;-1.066;2023-07-30T09:05:03;12.05;;;2.47;;
35558;SDS011;21661;50.794;-1.066;2023-07-30T09:07:29;8.98;;;3.05;;
35558;SDS011;21661;50.794;-1.066;2023-07-30T09:09:55;9.88;;;2.53;;
35558;SDS011;21661;50.794;-1.066;2023-07-30T09:12:25;11.57;;;2.78;;
35558;SDS011;21661;50.794;-1.066;2023-07-30T09:14:54;11.60;;;2.33;;
35558;SDS011;21661;50.794;-1.066;2023-07-30T09:17:19;8.90;;;2.08;;
35558;SDS011;21661;50.794;-1.066;2023-07-30T09:19:45;5.70;;;1.80;;
35558;SDS011;21661;50.794;-1.066;2023-07-30T09:22:25;9.23;;;2.17;;
35558;SDS011;21661;50.794;-1.066;2023-07-30T09:24:51;5.03;;;1.92;;
35558;SDS011;21661;50.794;-1.066;2023-07-30T09:27:19;5.25;;;2.28;;
35558;SDS011;21661;50.794;-1.066;2023-07-30T09:30:06;5.50;;;2.30;;
35558;SDS011;21661;50.794;-1.066;2023-07-30T09:32:32;5.45;;;1.73;;
35558;SDS011;21661;50.794;-1.066;2023-07-30T09:37:38;5.47;;;1.77;;
35558;SDS011;21661;50.794;-1.066;2023-07-30T09:40:06;4.70;;;1.70;;
35558;SDS011;21661;50.794;-1.066;2023-07-30T09:42:37;7.22;;;2.08;;
35558;SDS011;21661;50.794;-1.066;2023-07-30T09:45:06;9.68;;;1.90;;
35558;SDS011;21661;50.794;-1.066;2023-07-30T09:47:33;5.90;;;1.77;;
35558;SDS011;21661;50.794;-1.066;2023-07-30T09:50:01;7.50;;;2.03;;
35558;SDS011;21661;50.794;-1.066;2023-07-30T09:52:27;8.57;;;2.00;;
35558;SDS011;21661;50.794;-1.066;2023-07-30T09:54:57;7.07;;;2.03;;
35558;SDS011;21661;50.794;-1.066;2023-07-30T09:57:23;8.10;;;2.40;;
35558;SDS011;21661;50.794;-1.066;2023-07-30T09:59:49;6.70;;;2.28;;
35558;SDS011;21661;50.794;-1.066;2023-07-30T10:02:15;8.13;;;2.58;;
35558;SDS011;21661;50.794;-1.066;2023-07-30T10:04:43;6.07;;;2.28;;
35558;SDS011;21661;50.794;-1.066;2023-07-30T10:07:13;7.93;;;2.45;;
35558;SDS011;21661;50.794;-1.066;2023-07-30T10:09:44;7.28;;;2.15;;
35558;SDS011;21661;50.794;-1.066;2023-07-30T10:12:15;5.72;;;2.13;;
35558;SDS011;21661;50.794;-1.066;2023-07-30T10:14:43;6.22;;;1.80;;
35558;SDS011;21661;50.794;-1.066;2023-07-30T10:17:11;4.57;;;1.83;;
35558;SDS011;21661;50.794;-1.066;2023-07-30T10:19:37;3.03;;;1.20;;
35558;SDS011;21661;50.794;-1.066;2023-07-30T10:24:38;2.80;;;1.00;;
35558;SDS011;21661;50.794;-1.066;2023-07-30T10:27:07;2.58;;;0.80;;
35558;SDS011;21661;50.794;-1.066;2023-07-30T10:29:35;3.30;;;1.35;;
35558;SDS011;21661;50.794;-1.066;2023-07-30T10:32:01;1.98;;;0.85;;
35558;SDS011;21661;50.794;-1.066;2023-07-30T10:34:43;3.35;;;1.00;;
35558;SDS011;21661;50.794;-1.066;2023-07-30T10:37:09;2.03;;;0.70;;
35558;SDS011;21661;50.794;-1.066;2023-07-30T10:39:35;3.45;;;0.95;;
35558;SDS011;21661;50.794;-1.066;2023-07-30T10:42:01;2.83;;;0.80;;
35558;SDS011;21661;50.794;-1.066;2023-07-30T10:44:33;2.08;;;0.70;;
35558;SDS011;21661;50.794;-1.066;2023-07-30T10:47:00;2.08;;;0.80;;
35558;SDS011;21661;50.794;-1.066;2023-07-30T10:49:28;1.48;;;0.70;;
35558;SDS011;21661;50.794;-1.066;2023-07-30T10:51:55;2.42;;;0.90;;
35558;SDS011;21661;50.794;-1.066;2023-07-30T10:54:25;3.80;;;0.90;;
35558;SDS011;21661;50.794;-1.066;2023-07-30T10:56:51;2.80;;;0.90;;
35558;SDS011;21661;50.794;-1.066;2023-07-30T10:59:17;4.15;;;1.13;;
35558;SDS011;21661;50.794;-1.066;2023-07-30T11:01:44;3.53;;;1.27;;
35558;SDS011;21661;50.794;-1.066;2023-07-30T11:04:14;4.53;;;1.50;;
35558;SDS011;21661;50.794;-1.066;2023-07-30T11:06:46;4.68;;;1.50;;
35558;SDS011;21661;50.794;-1.066;2023-07-30T11:09:23;5.78;;;2.10;;
35558;SDS011;21661;50.794;-1.066;2023-07-30T11:11:50;5.13;;;1.80;;
35558;SDS011;21661;50.794;-1.066;2023-07-30T11:14:18;5.45;;;1.70;;
35558;SDS011;21661;50.794;-1.066;2023-07-30T11:16:49;7.10;;;1.65;;
35558;SDS011;21661;50.794;-1.066;2023-07-30T11:19:16;4.68;;;1.50;;
35558;SDS011;21661;50.794;-1.066;2023-07-30T11:21:49;7.35;;;1.80;;
35558;SDS011;21661;50.794;-1.066;2023-07-30T11:24:16;4.35;;;1.65;;
35558;SDS011;21661;50.794;-1.066;2023-07-30T11:26:42;3.83;;;1.45;;
35558;SDS011;21661;50.794;-1.066;2023-07-30T11:29:15;5.50;;;2.00;;
35558;SDS011;21661;50.794;-1.066;2023-07-30T11:31:42;6.68;;;1.63;;
35558;SDS011;21661;50.794;-1.066;2023-07-30T11:34:08;5.68;;;2.22;;
35558;SDS011;21661;50.794;-1.066;2023-07-30T11:36:34;6.28;;;1.90;;
35558;SDS011;21661;50.794;-1.066;2023-07-30T11:39:00;5.43;;;1.83;;
35558;SDS011;21661;50.794;-1.066;2023-07-30T11:41:26;5.65;;;2.15;;
35558;SDS011;21661;50.794;-1.066;2023-07-30T11:43:53;5.90;;;2.10;;
35558;SDS011;21661;50.794;-1.066;2023-07-30T11:46:19;9.10;;;2.25;;
35558;SDS011;21661;50.794;-1.066;2023-07-30T11:48:48;7.20;;;2.15;;
35558;SDS011;21661;50.794;-1.066;2023-07-30T11:51:26;7.32;;;2.60;;
35558;SDS011;21661;50.794;-1.066;2023-07-30T11:53:56;9.88;;;2.70;;
35558;SDS011;21661;50.794;-1.066;2023-07-30T11:56:27;8.48;;;2.70;;
35558;SDS011;21661;50.794;-1.066;2023-07-30T11:59:06;8.82;;;2.83;;
35558;SDS011;21661;50.794;-1.066;2023-07-30T12:01:33;5.22;;;2.50;;
35558;SDS011;21661;50.794;-1.066;2023-07-30T12:04:00;5.55;;;2.13;;
35558;SDS011;21661;50.794;-1.066;2023-07-30T12:09:20;10.02;;;2.83;;
35558;SDS011;21661;50.794;-1.066;2023-07-30T12:11:55;9.98;;;2.90;;
35558;SDS011;21661;50.794;-1.066;2023-07-30T12:14:24;8.35;;;2.90;;
35558;SDS011;21661;50.794;-1.066;2023-07-30T12:16:55;11.23;;;2.90;;
35558;SDS011;21661;50.794;-1.066;2023-07-30T12:19:24;11.85;;;3.65;;
35558;SDS011;21661;50.794;-1.066;2023-07-30T12:21:49;9.68;;;3.13;;
35558;SDS011;21661;50.794;-1.066;2023-07-30T12:24:15;10.93;;;2.97;;
35558;SDS011;21661;50.794;-1.066;2023-07-30T12:26:41;10.57;;;3.05;;
35558;SDS011;21661;50.794;-1.066;2023-07-30T12:29:06;10.18;;;2.85;;
35558;SDS011;21661;50.794;-1.066;2023-07-30T12:31:32;9.00;;;2.85;;
35558;SDS011;21661;50.794;-1.066;2023-07-30T12:33:57;11.20;;;3.00;;
35558;SDS011;21661;50.794;-1.066;2023-07-30T12:36:23;9.65;;;2.83;;
35558;SDS011;21661;50.794;-1.066;2023-07-30T12:38:49;9.60;;;2.92;;
35558;SDS011;21661;50.794;-1.066;2023-07-30T12:41:17;10.30;;;2.72;;
35558;SDS011;21661;50.794;-1.066;2023-07-30T12:43:43;9.63;;;3.25;;
35558;SDS011;21661;50.794;-1.066;2023-07-30T12:46:09;10.18;;;3.13;;
35558;SDS011;21661;50.794;-1.066;2023-07-30T12:48:35;10.68;;;3.35;;
35558;SDS011;21661;50.794;-1.066;2023-07-30T12:51:00;13.73;;;3.33;;
35558;SDS011;21661;50.794;-1.066;2023-07-30T12:53:27;11.40;;;3.53;;
35558;SDS011;21661;50.794;-1.066;2023-07-30T12:55:52;11.98;;;3.08;;
35558;SDS011;21661;50.794;-1.066;2023-07-30T12:58:18;13.50;;;3.90;;
35558;SDS011;21661;50.794;-1.066;2023-07-30T13:00:43;13.73;;;3.38;;
35558;SDS011;21661;50.794;-1.066;2023-07-30T13:03:09;11.85;;;3.25;;
35558;SDS011;21661;50.794;-1.066;2023-07-30T13:05:34;11.95;;;3.92;;
35558;SDS011;21661;50.794;-1.066;2023-07-30T13:08:00;14.98;;;3.40;;
35558;SDS011;21661;50.794;-1.066;2023-07-30T13:10:26;10.52;;;3.92;;
35558;SDS011;21661;50.794;-1.066;2023-07-30T13:12:51;13.77;;;3.78;;
35558;SDS011;21661;50.794;-1.066;2023-07-30T13:15:17;9.85;;;3.35;;
35558;SDS011;21661;50.794;-1.066;2023-07-30T13:17:42;11.52;;;3.33;;
35558;SDS011;21661;50.794;-1.066;2023-07-30T13:20:08;11.88;;;3.88;;
35558;SDS011;21661;50.794;-1.066;2023-07-30T13:22:34;13.85;;;3.97;;
35558;SDS011;21661;50.794;-1.066;2023-07-30T13:25:00;11.10;;;3.30;;
35558;SDS011;21661;50.794;-1.066;2023-07-30T13:27:25;11.07;;;3.40;;
35558;SDS011;21661;50.794;-1.066;2023-07-30T13:29:51;12.38;;;3.60;;
35558;SDS011;21661;50.794;-1.066;2023-07-30T13:32:16;9.80;;;3.80;;
35558;SDS011;21661;50.794;-1.066;2023-07-30T13:34:42;10.90;;;3.30;;
35558;SDS011;21661;50.794;-1.066;2023-07-30T13:37:08;10.23;;;3.20;;
35558;SDS011;21661;50.794;-1.066;2023-07-30T13:39:33;10.77;;;3.53;;
35558;SDS011;21661;50.794;-1.066;2023-07-30T13:41:59;13.95;;;4.28;;
35558;SDS011;21661;50.794;-1.066;2023-07-30T13:44:24;9.13;;;2.50;;
35558;SDS011;21661;50.794;-1.066;2023-07-30T13:46:50;8.88;;;2.70;;
35558;SDS011;21661;50.794;-1.066;2023-07-30T13:49:16;8.55;;;2.97;;
35558;SDS011;21661;50.794;-1.066;2023-07-30T13:51:42;7.78;;;2.60;;
35558;SDS011;21661;50.794;-1.066;2023-07-30T13:54:07;9.55;;;2.85;;
35558;SDS011;21661;50.794;-1.066;2023-07-30T13:56:33;9.30;;;2.72;;
35558;SDS011;21661;50.794;-1.066;2023-07-30T13:58:59;6.10;;;2.20;;
35558;SDS011;21661;50.794;-1.066;2023-07-30T14:01:25;9.25;;;3.00;;
35558;SDS011;21661;50.794;-1.066;2023-07-30T14:03:50;7.05;;;2.63;;
35558;SDS011;21661;50.794;-1.066;2023-07-30T14:06:16;10.35;;;2.30;;
35558;SDS011;21661;50.794;-1.066;2023-07-30T14:08:42;7.55;;;2.70;;
35558;SDS011;21661;50.794;-1.066;2023-07-30T14:11:08;6.13;;;2.33;;
35558;SDS011;21661;50.794;-1.066;2023-07-30T14:13:33;9.20;;;2.95;;
35558;SDS011;21661;50.794;-1.066;2023-07-30T14:15:59;7.22;;;2.30;;
35558;SDS011;21661;50.794;-1.066;2023-07-30T14:18:25;7.20;;;2.70;;
35558;SDS011;21661;50.794;-1.066;2023-07-30T14:20:51;6.85;;;2.78;;
35558;SDS011;21661;50.794;-1.066;2023-07-30T14:23:16;11.98;;;3.40;;
35558;SDS011;21661;50.794;-1.066;2023-07-30T14:25:42;6.97;;;2.60;;
35558;SDS011;21661;50.794;-1.066;2023-07-30T14:28:08;9.90;;;2.95;;
35558;SDS011;21661;50.794;-1.066;2023-07-30T14:30:33;9.27;;;2.95;;
35558;SDS011;21661;50.794;-1.066;2023-07-30T14:33:00;8.75;;;3.00;;
35558;SDS011;21661;50.794;-1.066;2023-07-30T14:35:26;10.32;;;3.15;;